createdAt,value
2018-10-18T00:01:41.379Z,6.20
2018-10-18T00:04:09.909Z,6.20
2018-10-18T00:06:38.417Z,6.20
2018-10-18T00:09:09.632Z,6.10
2018-10-18T00:11:38.152Z,6.10
2018-10-18T00:14:06.910Z,6.00
2018-10-18T00:16:35.360Z,6.00
2018-10-18T00:19:03.925Z,6.00
2018-10-18T00:21:32.479Z,6.00
2018-10-18T00:24:01.077Z,6.00
2018-10-18T00:26:29.650Z,6.00
2018-10-18T00:28:58.219Z,6.00
2018-10-18T00:31:26.770Z,6.00
2018-10-18T00:33:55.285Z,5.90
2018-10-18T00:36:23.820Z,5.90
2018-10-18T00:38:52.319Z,5.90
2018-10-18T00:41:20.916Z,5.90
2018-10-18T00:43:49.435Z,5.90
2018-10-18T00:46:18.036Z,5.80
2018-10-18T00:48:46.568Z,5.90
2018-10-18T00:51:15.090Z,5.90
2018-10-18T00:53:43.679Z,5.80
2018-10-18T00:56:12.265Z,5.80
2018-10-18T00:58:40.711Z,5.80
2018-10-18T01:01:09.279Z,5.80
2018-10-18T01:03:37.800Z,5.80
2018-10-18T01:06:06.315Z,5.70
2018-10-18T01:08:34.836Z,5.70
2018-10-18T01:11:03.386Z,5.70
2018-10-18T01:13:31.917Z,5.60
2018-10-18T01:16:00.442Z,5.60
2018-10-18T01:18:29.024Z,5.60
2018-10-18T01:20:57.560Z,5.50
2018-10-18T01:23:26.121Z,5.50
2018-10-18T01:25:54.703Z,5.50
2018-10-18T01:28:23.224Z,5.50
2018-10-18T01:30:51.774Z,5.40
2018-10-18T01:33:20.307Z,5.40
2018-10-18T01:35:48.823Z,5.40
2018-10-18T01:38:17.455Z,5.30
2018-10-18T01:40:45.946Z,5.30
2018-10-18T01:43:14.497Z,5.30
2018-10-18T01:45:43.035Z,5.30
2018-10-18T01:48:11.660Z,5.40
2018-10-18T01:50:40.101Z,5.30
2018-10-18T01:53:09.170Z,5.30
2018-10-18T01:55:37.659Z,5.30
2018-10-18T01:58:06.506Z,5.20
2018-10-18T02:00:35.044Z,5.20
2018-10-18T02:03:03.603Z,5.20
2018-10-18T02:05:32.201Z,5.20
2018-10-18T02:08:01.041Z,5.20
2018-10-18T02:10:29.544Z,5.20
2018-10-18T02:12:58.096Z,5.10
2018-10-18T02:15:26.605Z,5.20
2018-10-18T02:17:55.243Z,5.10
2018-10-18T02:20:23.765Z,5.10
2018-10-18T02:22:52.285Z,5.00
2018-10-18T02:25:20.925Z,5.00
2018-10-18T02:27:49.500Z,4.90
2018-10-18T02:30:18.222Z,4.80
2018-10-18T02:32:46.607Z,4.70
2018-10-18T02:35:15.136Z,4.60
2018-10-18T02:37:43.657Z,4.60
2018-10-18T02:40:12.188Z,4.50
2018-10-18T02:42:40.717Z,4.50
2018-10-18T02:45:09.248Z,4.50
2018-10-18T02:47:37.800Z,4.50
2018-10-18T02:50:06.898Z,4.40
2018-10-18T02:52:35.427Z,4.40
2018-10-18T02:55:04.099Z,4.40
2018-10-18T02:57:32.595Z,4.40
2018-10-18T03:00:01.184Z,4.40
2018-10-18T03:02:29.714Z,4.40
2018-10-18T03:04:58.228Z,4.40
2018-10-18T03:07:26.751Z,4.40
2018-10-18T03:09:55.264Z,4.40
2018-10-18T03:12:23.789Z,4.40
2018-10-18T03:14:52.332Z,4.40
2018-10-18T03:17:20.851Z,4.40
2018-10-18T03:19:49.399Z,4.30
2018-10-18T03:22:17.960Z,4.30
2018-10-18T03:24:46.482Z,4.30
2018-10-18T03:27:15.068Z,4.20
2018-10-18T03:29:43.596Z,4.20
2018-10-18T03:32:12.122Z,4.20
2018-10-18T03:34:40.635Z,4.10
2018-10-18T03:37:09.143Z,4.00
2018-10-18T03:39:37.643Z,4.00
2018-10-18T03:42:06.259Z,4.00
2018-10-18T03:44:34.738Z,4.00
2018-10-18T03:47:03.544Z,4.00
2018-10-18T03:49:32.077Z,4.00
2018-10-18T03:52:00.799Z,3.90
2018-10-18T03:54:29.356Z,3.90
2018-10-18T03:56:57.868Z,3.80
2018-10-18T03:59:26.449Z,3.80
2018-10-18T04:01:55.271Z,3.70
2018-10-18T04:04:23.830Z,3.70
2018-10-18T04:06:52.404Z,3.70
2018-10-18T04:09:20.940Z,3.60
2018-10-18T04:11:49.471Z,3.60
2018-10-18T04:14:17.997Z,3.60
2018-10-18T04:16:46.549Z,3.50
2018-10-18T04:19:15.057Z,3.50
2018-10-18T04:21:43.576Z,3.50
2018-10-18T04:24:12.176Z,3.50
2018-10-18T04:26:40.675Z,3.50
2018-10-18T04:29:09.220Z,3.40
2018-10-18T04:31:37.732Z,3.40
2018-10-18T04:34:06.239Z,3.40
2018-10-18T04:36:34.745Z,3.40
2018-10-18T04:39:03.632Z,3.40
2018-10-18T04:41:32.136Z,3.30
2018-10-18T04:44:00.667Z,3.30
2018-10-18T04:46:29.203Z,3.30
2018-10-18T04:48:57.799Z,3.30
2018-10-18T04:51:26.237Z,3.30
2018-10-18T04:53:54.777Z,3.20
2018-10-18T04:56:23.314Z,3.20
2018-10-18T04:58:51.820Z,3.20
2018-10-18T05:01:20.444Z,3.20
2018-10-18T05:03:49.003Z,3.20
2018-10-18T05:06:17.537Z,3.20
2018-10-18T05:08:46.108Z,3.10
2018-10-18T05:11:14.675Z,3.10
2018-10-18T05:13:43.215Z,3.00
2018-10-18T05:16:11.727Z,3.00
2018-10-18T05:18:40.260Z,3.00
2018-10-18T05:21:08.806Z,3.00
2018-10-18T05:23:37.387Z,3.00
2018-10-18T05:26:06.460Z,3.10
2018-10-18T05:28:35.016Z,3.10
2018-10-18T05:31:03.583Z,3.20
2018-10-18T05:33:32.062Z,3.30
2018-10-18T05:36:00.644Z,3.30
2018-10-18T05:38:29.197Z,3.30
2018-10-18T05:40:57.736Z,3.40
2018-10-18T05:43:26.281Z,3.40
2018-10-18T05:45:55.748Z,3.40
2018-10-18T05:48:24.343Z,3.40
2018-10-18T05:50:52.840Z,3.40
2018-10-18T05:53:21.493Z,3.40
2018-10-18T05:55:50.081Z,3.40
2018-10-18T05:58:18.703Z,3.40
2018-10-18T06:00:47.352Z,3.50
2018-10-18T06:03:15.974Z,3.60
2018-10-18T06:05:44.569Z,3.60
2018-10-18T06:08:13.221Z,3.80
2018-10-18T06:10:53.068Z,3.80
2018-10-18T06:13:21.801Z,3.90
2018-10-18T06:15:50.376Z,4.00
2018-10-18T06:18:19.023Z,4.00
2018-10-18T06:20:47.659Z,4.20
2018-10-18T06:23:16.335Z,4.30
2018-10-18T06:25:45.033Z,5.10
2018-10-18T06:28:13.684Z,6.30
2018-10-18T06:30:42.560Z,7.50
2018-10-18T06:33:11.236Z,8.20
2018-10-18T06:35:39.855Z,8.50
2018-10-18T06:38:08.491Z,8.50
2018-10-18T06:40:37.148Z,8.40
2018-10-18T06:43:06.005Z,8.30
2018-10-18T06:45:34.604Z,8.00
2018-10-18T06:48:03.271Z,7.70
2018-10-18T06:50:31.844Z,7.60
2018-10-18T06:53:01.283Z,7.60
2018-10-18T06:55:29.928Z,7.90
2018-10-18T06:57:58.543Z,8.50
2018-10-18T07:00:27.240Z,8.80
2018-10-18T07:02:55.818Z,8.90
2018-10-18T07:05:24.515Z,9.10
2018-10-18T07:07:53.088Z,9.40
2018-10-18T07:10:21.689Z,10.10
2018-10-18T07:12:50.361Z,10.70
2018-10-18T07:15:18.972Z,11.00
2018-10-18T07:17:47.687Z,10.70
2018-10-18T07:20:16.396Z,10.50
2018-10-18T07:22:44.998Z,10.30
2018-10-18T07:25:14.922Z,10.30
2018-10-18T07:27:43.872Z,10.50
2018-10-18T07:30:13.940Z,10.70
2018-10-18T07:32:42.804Z,11.20
2018-10-18T07:35:12.673Z,11.70
2018-10-18T07:37:41.256Z,12.40
2018-10-18T07:40:12.656Z,12.60
2018-10-18T07:42:41.297Z,13.20
2018-10-18T07:45:10.734Z,13.90
2018-10-18T07:47:39.427Z,14.50
2018-10-18T07:50:08.216Z,15.00
2018-10-18T07:52:37.198Z,16.20
2018-10-18T07:55:07.037Z,17.40
2018-10-18T07:57:35.702Z,18.20
2018-10-18T08:00:05.261Z,18.70
2018-10-18T08:02:33.744Z,19.40
2018-10-18T08:05:02.380Z,19.20
2018-10-18T08:07:30.957Z,19.00
2018-10-18T08:09:59.653Z,18.70
2018-10-18T08:12:28.342Z,18.50
2018-10-18T08:14:56.988Z,17.90
2018-10-18T08:17:25.676Z,17.90
2018-10-18T08:19:54.219Z,18.10
2018-10-18T08:22:22.819Z,18.00
2018-10-18T08:24:51.446Z,18.30
2018-10-18T08:27:20.197Z,18.60
2018-10-18T08:29:48.850Z,18.20
2018-10-18T08:32:17.481Z,17.80
2018-10-18T08:34:46.156Z,17.30
2018-10-18T08:37:14.801Z,17.00
2018-10-18T08:39:43.497Z,16.80
2018-10-18T08:42:12.132Z,17.00
2018-10-18T08:44:41.641Z,17.40
2018-10-18T08:47:10.283Z,17.80
2018-10-18T08:49:38.933Z,18.00
2018-10-18T08:52:07.524Z,18.30
2018-10-18T08:54:36.124Z,18.10
2018-10-18T08:57:04.710Z,17.70
2018-10-18T08:59:33.312Z,17.20
2018-10-18T09:02:01.979Z,17.10
2018-10-18T09:04:30.571Z,17.40
2018-10-18T09:06:59.179Z,17.60
2018-10-18T09:09:27.809Z,17.70
2018-10-18T09:11:56.418Z,17.70
2018-10-18T09:14:25.179Z,17.40
2018-10-18T09:16:53.780Z,17.30
2018-10-18T09:19:22.419Z,17.50
2018-10-18T09:21:51.023Z,17.60
2018-10-18T09:24:19.664Z,17.90
2018-10-18T09:26:48.276Z,18.30
2018-10-18T09:29:16.904Z,18.30
2018-10-18T09:31:45.514Z,18.20
2018-10-18T09:34:14.137Z,18.00
2018-10-18T09:36:42.724Z,18.20
2018-10-18T09:39:11.324Z,18.50
2018-10-18T09:41:39.987Z,18.70
2018-10-18T09:44:08.621Z,18.60
2018-10-18T09:46:37.865Z,18.50
2018-10-18T09:49:06.579Z,18.50
2018-10-18T09:51:35.183Z,18.70
2018-10-18T09:54:04.203Z,18.90
2018-10-18T09:56:33.394Z,19.00
2018-10-18T09:59:02.409Z,19.00
2018-10-18T10:01:36.292Z,19.10
2018-10-18T10:04:04.998Z,19.30
2018-10-18T10:06:33.596Z,19.20
2018-10-18T10:09:02.225Z,19.20
2018-10-18T10:11:30.830Z,19.40
2018-10-18T10:13:59.481Z,19.50
2018-10-18T10:16:28.563Z,19.70
2018-10-18T10:18:57.200Z,19.90
2018-10-18T10:21:25.812Z,20.10
2018-10-18T10:23:54.440Z,20.40
2018-10-18T10:26:23.078Z,20.30
2018-10-18T10:28:51.776Z,20.20
2018-10-18T10:31:20.421Z,19.70
2018-10-18T10:33:49.035Z,19.80
2018-10-18T10:36:17.637Z,19.90
2018-10-18T10:38:46.241Z,20.20
2018-10-18T10:41:14.930Z,20.50
2018-10-18T10:43:43.507Z,20.80
2018-10-18T10:46:12.252Z,20.60
2018-10-18T10:48:40.820Z,20.10
2018-10-18T10:51:09.534Z,19.80
2018-10-18T10:53:38.015Z,19.80
2018-10-18T10:56:06.767Z,20.10
2018-10-18T10:58:35.308Z,20.60
2018-10-18T11:01:10.203Z,21.00
2018-10-18T11:03:39.837Z,20.60
2018-10-18T11:06:08.509Z,20.70
2018-10-18T11:08:37.070Z,21.00
2018-10-18T11:11:06.235Z,21.00
2018-10-18T11:13:36.898Z,20.90
2018-10-18T11:16:06.128Z,21.10
2018-10-18T11:18:35.792Z,21.10
2018-10-18T11:21:05.413Z,21.10
2018-10-18T11:23:34.667Z,21.30
2018-10-18T11:26:03.574Z,21.30
2018-10-18T11:28:32.548Z,21.50
2018-10-18T11:31:01.204Z,21.50
2018-10-18T11:33:29.837Z,21.20
2018-10-18T11:35:58.477Z,20.70
2018-10-18T11:38:27.044Z,20.60
2018-10-18T11:40:55.635Z,20.60
2018-10-18T11:43:24.272Z,20.70
2018-10-18T11:45:52.905Z,20.80
2018-10-18T11:48:21.536Z,20.80
2018-10-18T11:50:50.183Z,20.80
2018-10-18T11:53:18.809Z,21.00
2018-10-18T11:55:47.435Z,21.20
2018-10-18T11:58:16.271Z,21.10
2018-10-18T12:00:44.876Z,21.20
2018-10-18T12:03:13.474Z,21.30
2018-10-18T12:05:42.075Z,21.50
2018-10-18T12:08:10.800Z,21.50
2018-10-18T12:10:39.365Z,21.50
2018-10-18T12:13:08.019Z,21.40
2018-10-18T12:15:36.631Z,21.40
2018-10-18T12:18:05.377Z,21.40
2018-10-18T12:20:34.001Z,21.50
2018-10-18T12:23:02.718Z,21.60
2018-10-18T12:25:31.291Z,21.90
2018-10-18T12:27:59.937Z,22.20
2018-10-18T12:30:28.527Z,22.40
2018-10-18T12:32:57.164Z,22.30
2018-10-18T12:35:25.780Z,22.00
2018-10-18T12:37:54.506Z,22.00
2018-10-18T12:40:23.143Z,22.10
2018-10-18T12:42:51.989Z,22.20
2018-10-18T12:45:20.718Z,22.20
2018-10-18T12:47:49.315Z,22.10
2018-10-18T12:50:18.068Z,22.00
2018-10-18T12:52:46.581Z,22.00
2018-10-18T12:55:15.210Z,22.00
2018-10-18T12:57:43.815Z,22.00
2018-10-18T13:00:12.542Z,22.10
2018-10-18T13:02:41.477Z,22.40
2018-10-18T13:05:10.831Z,22.50
2018-10-18T13:07:39.456Z,22.30
2018-10-18T13:10:09.913Z,22.20
2018-10-18T13:12:38.708Z,22.10
2018-10-18T13:15:08.637Z,22.10
2018-10-18T13:17:37.523Z,22.10
2018-10-18T13:20:07.125Z,22.00
2018-10-18T13:22:35.716Z,21.90
2018-10-18T13:25:04.770Z,21.80
2018-10-18T13:27:33.373Z,22.00
2018-10-18T13:30:02.054Z,21.90
2018-10-18T13:32:30.609Z,21.90
2018-10-18T13:34:59.231Z,21.70
2018-10-18T13:37:27.817Z,21.40
2018-10-18T13:39:56.396Z,21.30
2018-10-18T13:42:25.003Z,21.20
2018-10-18T13:44:53.641Z,21.20
2018-10-18T13:47:22.255Z,21.30
2018-10-18T13:49:50.904Z,21.30
2018-10-18T13:52:19.496Z,21.20
2018-10-18T13:54:48.083Z,21.20
2018-10-18T13:57:16.695Z,21.20
2018-10-18T13:59:56.625Z,21.20
2018-10-18T14:02:25.045Z,21.00
2018-10-18T14:04:53.650Z,21.00
2018-10-18T14:07:22.259Z,20.90
2018-10-18T14:09:50.924Z,21.00
2018-10-18T14:12:19.543Z,20.90
2018-10-18T14:14:48.169Z,20.90
2018-10-18T14:17:16.972Z,20.80
2018-10-18T14:19:45.429Z,20.80
2018-10-18T14:22:14.049Z,20.70
2018-10-18T14:24:42.638Z,20.50
2018-10-18T14:27:11.292Z,20.40
2018-10-18T14:29:39.934Z,20.30
2018-10-18T14:32:09.202Z,20.40
2018-10-18T14:34:37.798Z,20.40
2018-10-18T14:37:06.467Z,20.20
2018-10-18T14:39:35.052Z,20.00
2018-10-18T14:42:03.706Z,20.00
2018-10-18T14:44:32.382Z,19.80
2018-10-18T14:47:01.105Z,19.80
2018-10-18T14:49:29.621Z,19.80
2018-10-18T14:51:58.299Z,19.70
2018-10-18T14:54:26.912Z,19.60
2018-10-18T14:56:55.544Z,19.60
2018-10-18T14:59:24.155Z,19.50
2018-10-18T15:01:52.841Z,19.50
2018-10-18T15:04:21.452Z,19.60
2018-10-18T15:06:50.080Z,19.60
2018-10-18T15:09:18.708Z,19.50
2018-10-18T15:11:47.387Z,19.30
2018-10-18T15:14:16.106Z,19.30
2018-10-18T15:16:44.624Z,19.20
2018-10-18T15:19:13.234Z,19.10
2018-10-18T15:21:41.818Z,18.90
2018-10-18T15:24:10.461Z,18.60
2018-10-18T15:26:39.296Z,18.60
2018-10-18T15:29:07.876Z,18.50
2018-10-18T15:31:36.395Z,18.50
2018-10-18T15:34:05.873Z,18.40
2018-10-18T15:36:34.624Z,18.20
2018-10-18T15:39:03.909Z,18.20
2018-10-18T15:41:32.472Z,18.20
2018-10-18T15:44:01.114Z,18.00
2018-10-18T15:46:29.748Z,18.00
2018-10-18T15:48:58.350Z,17.80
2018-10-18T15:51:26.974Z,17.60
2018-10-18T15:53:55.722Z,17.40
2018-10-18T15:56:24.322Z,17.30
2018-10-18T15:58:52.985Z,17.10
2018-10-18T16:01:21.669Z,16.80
2018-10-18T16:03:50.639Z,16.70
2018-10-18T16:06:19.363Z,16.50
2018-10-18T16:08:48.036Z,16.20
2018-10-18T16:11:16.854Z,16.30
2018-10-18T16:13:45.617Z,16.10
2018-10-18T16:16:14.232Z,16.10
2018-10-18T16:18:42.900Z,15.90
2018-10-18T16:21:11.631Z,15.80
2018-10-18T16:23:40.288Z,15.80
2018-10-18T16:26:09.122Z,15.70
2018-10-18T16:28:37.808Z,15.60
2018-10-18T16:31:06.512Z,15.40
2018-10-18T16:33:35.199Z,15.30
2018-10-18T16:36:03.868Z,15.00
2018-10-18T16:38:32.564Z,15.00
2018-10-18T16:41:01.363Z,14.90
2018-10-18T16:43:29.859Z,14.80
2018-10-18T16:45:58.500Z,14.70
2018-10-18T16:48:27.163Z,14.70
2018-10-18T16:50:55.784Z,14.50
2018-10-18T16:53:24.428Z,14.40
2018-10-18T16:55:53.169Z,14.40
2018-10-18T16:58:21.771Z,14.30
2018-10-18T17:00:50.367Z,14.10
2018-10-18T17:03:18.963Z,13.70
2018-10-18T17:05:47.650Z,13.50
2018-10-18T17:08:16.345Z,13.60
2018-10-18T17:10:44.865Z,13.40
2018-10-18T17:13:13.521Z,13.40
2018-10-18T17:15:42.180Z,13.50
2018-10-18T17:18:10.810Z,13.30
2018-10-18T17:20:39.497Z,13.30
2018-10-18T17:23:08.068Z,13.20
2018-10-18T17:25:36.710Z,13.10
2018-10-18T17:28:05.500Z,13.00
2018-10-18T17:30:34.127Z,13.00
2018-10-18T17:33:02.781Z,13.00
2018-10-18T17:35:31.402Z,13.00
2018-10-18T17:38:00.095Z,12.90
2018-10-18T17:40:28.689Z,12.90
2018-10-18T17:42:57.295Z,12.90
2018-10-18T17:45:25.935Z,12.80
2018-10-18T17:47:55.502Z,12.70
2018-10-18T17:50:24.265Z,12.60
2018-10-18T17:52:53.020Z,12.50
2018-10-18T17:55:21.617Z,12.40
2018-10-18T17:57:50.203Z,12.30
2018-10-18T18:00:18.871Z,12.30
2018-10-18T18:02:47.520Z,12.30
2018-10-18T18:05:16.160Z,12.30
2018-10-18T18:07:44.828Z,12.20
2018-10-18T18:10:15.200Z,12.20
2018-10-18T18:12:43.940Z,12.20
2018-10-18T18:15:12.548Z,12.20
2018-10-18T18:17:41.342Z,12.20
2018-10-18T18:20:11.300Z,12.10
2018-10-18T18:22:40.179Z,12.00
2018-10-18T18:25:10.424Z,11.70
2018-10-18T18:27:39.048Z,11.70
2018-10-18T18:30:10.128Z,11.70
2018-10-18T18:32:39.545Z,11.70
2018-10-18T18:35:08.168Z,11.60
2018-10-18T18:37:37.213Z,11.60
2018-10-18T18:40:07.198Z,11.50
2018-10-18T18:42:35.775Z,11.50
2018-10-18T18:45:09.671Z,11.50
2018-10-18T18:47:38.226Z,11.50
2018-10-18T18:50:07.283Z,11.50
2018-10-18T18:52:35.828Z,11.50
2018-10-18T18:55:04.751Z,11.60
2018-10-18T18:57:33.296Z,11.60
2018-10-18T19:00:03.702Z,11.50
2018-10-18T19:02:32.195Z,11.50
2018-10-18T19:05:00.731Z,11.40
2018-10-18T19:07:29.284Z,11.30
2018-10-18T19:09:57.824Z,11.20
2018-10-18T19:12:26.295Z,11.20
2018-10-18T19:14:54.898Z,11.10
2018-10-18T19:17:23.468Z,11.10
2018-10-18T19:19:51.985Z,11.00
2018-10-18T19:22:20.559Z,11.00
2018-10-18T19:24:49.160Z,10.90
2018-10-18T19:27:17.732Z,10.80
2018-10-18T19:29:46.276Z,10.80
2018-10-18T19:32:14.985Z,10.60
2018-10-18T19:34:43.477Z,10.50
2018-10-18T19:37:12.003Z,10.50
2018-10-18T19:39:40.549Z,10.50
2018-10-18T19:42:09.065Z,10.40
2018-10-18T19:44:37.652Z,10.30
2018-10-18T19:47:06.195Z,10.30
2018-10-18T19:49:34.707Z,10.20
2018-10-18T19:52:03.338Z,10.20
2018-10-18T19:54:31.796Z,10.20
2018-10-18T19:57:00.300Z,10.10
2018-10-18T19:59:28.827Z,10.10
2018-10-18T20:01:57.429Z,10.00
2018-10-18T20:04:25.943Z,9.90
2018-10-18T20:06:54.471Z,9.90
2018-10-18T20:09:23.029Z,9.90
2018-10-18T20:11:51.592Z,9.80
2018-10-18T20:14:20.125Z,9.70
2018-10-18T20:16:48.639Z,9.60
2018-10-18T20:19:17.169Z,9.50
2018-10-18T20:21:45.702Z,9.50
2018-10-18T20:24:14.271Z,9.50
2018-10-18T20:26:42.810Z,9.60
2018-10-18T20:29:11.383Z,9.60
2018-10-18T20:31:39.908Z,9.60
2018-10-18T20:34:08.464Z,9.50
2018-10-18T20:36:37.060Z,9.40
2018-10-18T20:39:08.193Z,9.40
2018-10-18T20:41:36.756Z,9.30
2018-10-18T20:44:05.552Z,9.20
2018-10-18T20:46:34.111Z,9.10
2018-10-18T20:49:02.649Z,9.00
2018-10-18T20:51:32.341Z,8.80
2018-10-18T20:54:01.183Z,8.70
2018-10-18T20:56:29.682Z,8.70
2018-10-18T20:58:58.380Z,8.70
2018-10-18T21:01:26.977Z,8.70
2018-10-18T21:03:55.516Z,8.80
2018-10-18T21:06:24.287Z,8.70
2018-10-18T21:08:52.665Z,8.70
2018-10-18T21:11:21.816Z,8.70
2018-10-18T21:13:50.356Z,8.70
2018-10-18T21:16:18.903Z,8.60
2018-10-18T21:18:47.412Z,8.60
2018-10-18T21:21:16.236Z,8.60
2018-10-18T21:23:44.708Z,8.50
2018-10-18T21:26:13.326Z,8.40
2018-10-18T21:28:41.834Z,8.40
2018-10-18T21:31:10.344Z,8.30
2018-10-18T21:33:38.881Z,8.20
2018-10-18T21:36:07.495Z,8.20
2018-10-18T21:38:36.022Z,8.20
2018-10-18T21:41:04.698Z,8.20
2018-10-18T21:43:33.227Z,8.20
2018-10-18T21:46:01.850Z,8.10
2018-10-18T21:48:31.185Z,8.10
2018-10-18T21:50:59.754Z,8.00
2018-10-18T21:53:28.289Z,8.00
2018-10-18T21:55:56.782Z,8.00
2018-10-18T21:58:25.434Z,7.90
2018-10-18T22:00:53.982Z,7.80
2018-10-18T22:03:22.520Z,7.80
2018-10-18T22:05:51.071Z,7.70
2018-10-18T22:08:19.577Z,7.60
2018-10-18T22:10:48.086Z,7.60
2018-10-18T22:13:16.616Z,7.60
2018-10-18T22:15:45.143Z,7.60
2018-10-18T22:18:13.704Z,7.50
2018-10-18T22:20:42.277Z,7.50
2018-10-18T22:23:10.954Z,7.50
2018-10-18T22:25:39.344Z,7.50
2018-10-18T22:28:07.944Z,7.40
2018-10-18T22:30:36.590Z,7.30
2018-10-18T22:33:05.481Z,7.30
2018-10-18T22:35:33.997Z,7.20
2018-10-18T22:38:02.572Z,7.20
2018-10-18T22:40:31.140Z,7.20
2018-10-18T22:42:59.660Z,7.20
2018-10-18T22:45:28.179Z,7.20
2018-10-18T22:47:56.705Z,7.20
2018-10-18T22:50:25.237Z,7.20
2018-10-18T22:52:53.819Z,7.10
2018-10-18T22:55:22.302Z,7.10
2018-10-18T22:57:50.839Z,7.00
2018-10-18T23:00:19.366Z,7.00
2018-10-18T23:02:47.916Z,7.00
2018-10-18T23:05:16.468Z,7.00
2018-10-18T23:07:44.997Z,6.90
2018-10-18T23:10:13.523Z,6.80
2018-10-18T23:12:42.036Z,6.80
2018-10-18T23:15:11.424Z,6.80
2018-10-18T23:17:39.992Z,6.80
2018-10-18T23:20:09.156Z,6.80
2018-10-18T23:22:37.659Z,6.70
2018-10-18T23:25:06.903Z,6.60
2018-10-18T23:27:35.424Z,6.50
2018-10-18T23:30:04.034Z,6.50
2018-10-18T23:32:32.624Z,6.50
2018-10-18T23:35:01.137Z,6.50
2018-10-18T23:37:29.580Z,6.40
2018-10-18T23:39:58.107Z,6.50
2018-10-18T23:42:26.640Z,6.50
2018-10-18T23:44:55.223Z,6.50
2018-10-18T23:47:23.740Z,6.50
2018-10-18T23:49:52.280Z,6.40
2018-10-18T23:52:20.796Z,6.40
2018-10-18T23:54:49.362Z,6.30
2018-10-18T23:57:17.991Z,6.30
2018-10-18T23:59:46.485Z,6.30
